sensor_id;sensor_type;location;lat;lon;timestamp;temperature;humidity
32097;DHT22;18610;49.916;8.284;2023-05-23T00:01:36;17.80;99.90
32097;DHT22;18610;49.916;8.284;2023-05-23T00:04:04;17.70;99.90
32097;DHT22;18610;49.916;8.284;2023-05-23T00:06:32;17.70;99.90
32097;DHT22;18610;49.916;8.284;2023-05-23T00:09:01;17.70;99.90
32097;DHT22;18610;49.916;8.284;2023-05-23T00:11:27;17.70;99.90
32097;DHT22;18610;49.916;8.284;2023-05-23T00:13:55;17.80;99.90
32097;DHT22;18610;49.916;8.284;2023-05-23T00:16:25;17.70;99.90
32097;DHT22;18610;49.916;8.284;2023-05-23T00:18:52;17.70;99.90
32097;DHT22;18610;49.916;8.284;2023-05-23T00:21:21;17.70;99.90
32097;DHT22;18610;49.916;8.284;2023-05-23T00:23:50;17.70;99.90
32097;DHT22;18610;49.916;8.284;2023-05-23T00:26:18;17.60;99.90
32097;DHT22;18610;49.916;8.284;2023-05-23T00:28:46;17.60;99.90
32097;DHT22;18610;49.916;8.284;2023-05-23T00:31:12;17.60;99.90
32097;DHT22;18610;49.916;8.284;2023-05-23T00:33:39;17.60;99.90
32097;DHT22;18610;49.916;8.284;2023-05-23T00:36:06;17.60;99.90
32097;DHT22;18610;49.916;8.284;2023-05-23T00:38:33;17.60;99.90
32097;DHT22;18610;49.916;8.284;2023-05-23T00:41:01;17.60;99.90
32097;DHT22;18610;49.916;8.284;2023-05-23T00:43:28;17.60;99.90
32097;DHT22;18610;49.916;8.284;2023-05-23T00:45:56;17.60;99.90
32097;DHT22;18610;49.916;8.284;2023-05-23T00:48:23;17.50;99.90
32097;DHT22;18610;49.916;8.284;2023-05-23T00:50:51;17.50;99.90
32097;DHT22;18610;49.916;8.284;2023-05-23T00:53:17;17.50;99.90
32097;DHT22;18610;49.916;8.284;2023-05-23T00:55:45;17.50;99.90
32097;DHT22;18610;49.916;8.284;2023-05-23T00:58:13;17.40;99.90
32097;DHT22;18610;49.916;8.284;2023-05-23T01:00:42;17.40;99.90
32097;DHT22;18610;49.916;8.284;2023-05-23T01:03:10;17.40;99.90
32097;DHT22;18610;49.916;8.284;2023-05-23T01:05:42;17.40;99.90
32097;DHT22;18610;49.916;8.284;2023-05-23T01:08:09;17.40;99.90
32097;DHT22;18610;49.916;8.284;2023-05-23T01:10:36;17.40;99.90
32097;DHT22;18610;49.916;8.284;2023-05-23T01:13:12;17.50;99.90
32097;DHT22;18610;49.916;8.284;2023-05-23T01:15:46;17.50;99.90
32097;DHT22;18610;49.916;8.284;2023-05-23T01:18:16;17.50;99.90
32097;DHT22;18610;49.916;8.284;2023-05-23T01:20:49;17.50;99.90
32097;DHT22;18610;49.916;8.284;2023-05-23T01:26:32;17.50;99.90
32097;DHT22;18610;49.916;8.284;2023-05-23T01:29:10;17.50;99.90
32097;DHT22;18610;49.916;8.284;2023-05-23T01:31:42;17.50;99.90
32097;DHT22;18610;49.916;8.284;2023-05-23T01:34:09;17.50;99.90
32097;DHT22;18610;49.916;8.284;2023-05-23T01:36:39;17.50;99.90
32097;DHT22;18610;49.916;8.284;2023-05-23T01:39:06;17.50;99.90
32097;DHT22;18610;49.916;8.284;2023-05-23T01:41:33;17.40;99.90
32097;DHT22;18610;49.916;8.284;2023-05-23T01:43:59;17.40;99.90
32097;DHT22;18610;49.916;8.284;2023-05-23T01:46:28;17.30;99.90
32097;DHT22;18610;49.916;8.284;2023-05-23T01:48:56;17.30;99.90
32097;DHT22;18610;49.916;8.284;2023-05-23T01:51:24;17.20;99.90
32097;DHT22;18610;49.916;8.284;2023-05-23T01:53:52;17.20;99.90
32097;DHT22;18610;49.916;8.284;2023-05-23T01:56:19;17.20;99.90
32097;DHT22;18610;49.916;8.284;2023-05-23T01:58:46;17.20;99.90
32097;DHT22;18610;49.916;8.284;2023-05-23T02:01:13;17.20;99.90
32097;DHT22;18610;49.916;8.284;2023-05-23T02:03:41;17.20;99.90
32097;DHT22;18610;49.916;8.284;2023-05-23T02:06:08;17.10;99.90
32097;DHT22;18610;49.916;8.284;2023-05-23T02:08:35;17.10;99.90
32097;DHT22;18610;49.916;8.284;2023-05-23T02:11:02;17.00;99.90
32097;DHT22;18610;49.916;8.284;2023-05-23T02:13:29;17.10;99.90
32097;DHT22;18610;49.916;8.284;2023-05-23T02:15:55;17.00;99.90
32097;DHT22;18610;49.916;8.284;2023-05-23T02:18:22;17.00;99.90
32097;DHT22;18610;49.916;8.284;2023-05-23T02:20:51;16.90;99.90
32097;DHT22;18610;49.916;8.284;2023-05-23T02:23:18;16.90;99.90
32097;DHT22;18610;49.916;8.284;2023-05-23T02:25:45;16.80;99.90
32097;DHT22;18610;49.916;8.284;2023-05-23T02:28:11;16.80;99.90
32097;DHT22;18610;49.916;8.284;2023-05-23T02:30:38;16.80;99.90
32097;DHT22;18610;49.916;8.284;2023-05-23T02:33:06;16.80;99.90
32097;DHT22;18610;49.916;8.284;2023-05-23T02:35:33;16.70;99.90
32097;DHT22;18610;49.916;8.284;2023-05-23T02:38:01;16.70;99.90
32097;DHT22;18610;49.916;8.284;2023-05-23T02:40:29;16.70;99.90
32097;DHT22;18610;49.916;8.284;2023-05-23T02:42:56;16.60;99.90
32097;DHT22;18610;49.916;8.284;2023-05-23T02:45:22;16.60;99.90
32097;DHT22;18610;49.916;8.284;2023-05-23T02:47:49;16.60;99.90
32097;DHT22;18610;49.916;8.284;2023-05-23T02:50:16;16.60;99.90
32097;DHT22;18610;49.916;8.284;2023-05-23T02:52:43;16.50;99.90
32097;DHT22;18610;49.916;8.284;2023-05-23T02:55:11;16.50;99.90
32097;DHT22;18610;49.916;8.284;2023-05-23T02:57:37;16.50;99.90
32097;DHT22;18610;49.916;8.284;2023-05-23T03:00:05;16.40;99.90
32097;DHT22;18610;49.916;8.284;2023-05-23T03:02:34;16.30;99.90
32097;DHT22;18610;49.916;8.284;2023-05-23T03:05:01;16.30;99.90
32097;DHT22;18610;49.916;8.284;2023-05-23T03:07:28;16.30;99.90
32097;DHT22;18610;49.916;8.284;2023-05-23T03:09:58;16.20;99.90
32097;DHT22;18610;49.916;8.284;2023-05-23T03:12:26;16.20;99.90
32097;DHT22;18610;49.916;8.284;2023-05-23T03:14:53;16.20;99.90
32097;DHT22;18610;49.916;8.284;2023-05-23T03:17:20;16.20;99.90
32097;DHT22;18610;49.916;8.284;2023-05-23T03:19:47;16.10;99.90
32097;DHT22;18610;49.916;8.284;2023-05-23T03:22:13;16.00;99.90
32097;DHT22;18610;49.916;8.284;2023-05-23T03:24:40;16.00;99.90
32097;DHT22;18610;49.916;8.284;2023-05-23T03:27:07;16.00;99.90
32097;DHT22;18610;49.916;8.284;2023-05-23T03:29:35;15.90;99.90
32097;DHT22;18610;49.916;8.284;2023-05-23T03:32:02;15.90;99.90
32097;DHT22;18610;49.916;8.284;2023-05-23T03:34:29;15.90;99.90
32097;DHT22;18610;49.916;8.284;2023-05-23T03:36:57;15.90;99.90
32097;DHT22;18610;49.916;8.284;2023-05-23T03:39:24;15.80;99.90
32097;DHT22;18610;49.916;8.284;2023-05-23T03:41:51;15.80;99.90
32097;DHT22;18610;49.916;8.284;2023-05-23T03:44:17;15.80;99.90
32097;DHT22;18610;49.916;8.284;2023-05-23T03:46:45;15.80;99.90
32097;DHT22;18610;49.916;8.284;2023-05-23T03:49:12;15.80;99.90
32097;DHT22;18610;49.916;8.284;2023-05-23T03:51:39;15.70;99.90
32097;DHT22;18610;49.916;8.284;2023-05-23T03:54:06;15.70;99.90
32097;DHT22;18610;49.916;8.284;2023-05-23T03:56:33;15.70;99.90
32097;DHT22;18610;49.916;8.284;2023-05-23T03:58:59;15.70;99.90
32097;DHT22;18610;49.916;8.284;2023-05-23T04:01:26;15.70;99.90
32097;DHT22;18610;49.916;8.284;2023-05-23T04:03:54;15.70;99.90
32097;DHT22;18610;49.916;8.284;2023-05-23T04:06:21;15.70;99.90
32097;DHT22;18610;49.916;8.284;2023-05-23T04:08:47;15.70;99.90
32097;DHT22;18610;49.916;8.284;2023-05-23T04:11:14;15.70;99.90
32097;DHT22;18610;49.916;8.284;2023-05-23T04:13:42;15.70;99.90
32097;DHT22;18610;49.916;8.284;2023-05-23T04:16:11;15.70;99.90
32097;DHT22;18610;49.916;8.284;2023-05-23T04:18:38;15.80;99.90
32097;DHT22;18610;49.916;8.284;2023-05-23T04:21:06;15.80;99.90
32097;DHT22;18610;49.916;8.284;2023-05-23T04:23:32;15.80;99.90
32097;DHT22;18610;49.916;8.284;2023-05-23T04:25:59;15.90;99.90
32097;DHT22;18610;49.916;8.284;2023-05-23T04:28:26;15.90;99.90
32097;DHT22;18610;49.916;8.284;2023-05-23T04:30:53;16.00;99.90
32097;DHT22;18610;49.916;8.284;2023-05-23T04:33:20;16.00;99.90
32097;DHT22;18610;49.916;8.284;2023-05-23T04:35:47;16.10;99.90
32097;DHT22;18610;49.916;8.284;2023-05-23T04:38:15;16.10;99.90
32097;DHT22;18610;49.916;8.284;2023-05-23T04:40:42;16.20;99.90
32097;DHT22;18610;49.916;8.284;2023-05-23T04:43:09;16.30;99.90
32097;DHT22;18610;49.916;8.284;2023-05-23T04:45:38;16.30;99.90
32097;DHT22;18610;49.916;8.284;2023-05-23T04:48:06;16.30;99.90
32097;DHT22;18610;49.916;8.284;2023-05-23T04:50:33;16.40;99.90
32097;DHT22;18610;49.916;8.284;2023-05-23T04:53:00;16.40;99.90
32097;DHT22;18610;49.916;8.284;2023-05-23T04:55:28;16.40;99.90
32097;DHT22;18610;49.916;8.284;2023-05-23T04:57:55;16.50;99.90
32097;DHT22;18610;49.916;8.284;2023-05-23T05:00:21;16.40;99.90
32097;DHT22;18610;49.916;8.284;2023-05-23T05:02:48;16.40;99.90
32097;DHT22;18610;49.916;8.284;2023-05-23T05:05:15;16.40;99.90
32097;DHT22;18610;49.916;8.284;2023-05-23T05:07:42;16.40;99.90
32097;DHT22;18610;49.916;8.284;2023-05-23T05:10:10;16.40;99.90
32097;DHT22;18610;49.916;8.284;2023-05-23T05:12:42;16.40;99.90
32097;DHT22;18610;49.916;8.284;2023-05-23T05:15:10;16.40;99.90
32097;DHT22;18610;49.916;8.284;2023-05-23T05:17:37;16.30;99.90
32097;DHT22;18610;49.916;8.284;2023-05-23T05:20:04;16.30;99.90
32097;DHT22;18610;49.916;8.284;2023-05-23T05:22:33;16.40;99.90
32097;DHT22;18610;49.916;8.284;2023-05-23T05:25:00;16.40;99.90
32097;DHT22;18610;49.916;8.284;2023-05-23T05:27:27;16.40;99.90
32097;DHT22;18610;49.916;8.284;2023-05-23T05:29:55;16.40;99.90
32097;DHT22;18610;49.916;8.284;2023-05-23T05:32:23;16.40;99.90
32097;DHT22;18610;49.916;8.284;2023-05-23T05:34:49;16.40;99.90
32097;DHT22;18610;49.916;8.284;2023-05-23T05:37:16;16.40;99.90
32097;DHT22;18610;49.916;8.284;2023-05-23T05:39:43;16.40;99.90
32097;DHT22;18610;49.916;8.284;2023-05-23T05:42:09;16.50;99.90
32097;DHT22;18610;49.916;8.284;2023-05-23T05:44:36;16.50;99.90
32097;DHT22;18610;49.916;8.284;2023-05-23T05:47:04;16.40;99.90
32097;DHT22;18610;49.916;8.284;2023-05-23T05:49:31;16.40;99.90
32097;DHT22;18610;49.916;8.284;2023-05-23T05:51:58;16.40;99.90
32097;DHT22;18610;49.916;8.284;2023-05-23T05:54:25;16.40;99.90
32097;DHT22;18610;49.916;8.284;2023-05-23T05:56:51;16.40;99.90
32097;DHT22;18610;49.916;8.284;2023-05-23T05:59:18;16.40;99.90
32097;DHT22;18610;49.916;8.284;2023-05-23T06:01:45;16.40;99.90
32097;DHT22;18610;49.916;8.284;2023-05-23T06:04:13;16.40;99.90
32097;DHT22;18610;49.916;8.284;2023-05-23T06:06:39;16.40;99.90
32097;DHT22;18610;49.916;8.284;2023-05-23T06:09:06;16.40;99.90
32097;DHT22;18610;49.916;8.284;2023-05-23T06:11:33;16.40;99.90
32097;DHT22;18610;49.916;8.284;2023-05-23T06:14:03;16.50;99.90
32097;DHT22;18610;49.916;8.284;2023-05-23T06:16:29;16.50;99.90
32097;DHT22;18610;49.916;8.284;2023-05-23T06:18:56;16.50;99.90
32097;DHT22;18610;49.916;8.284;2023-05-23T06:21:24;16.60;99.90
32097;DHT22;18610;49.916;8.284;2023-05-23T06:23:51;16.60;99.90
32097;DHT22;18610;49.916;8.284;2023-05-23T06:26:18;16.70;99.90
32097;DHT22;18610;49.916;8.284;2023-05-23T06:28:45;16.70;99.90
32097;DHT22;18610;49.916;8.284;2023-05-23T06:31:11;16.80;99.90
32097;DHT22;18610;49.916;8.284;2023-05-23T06:33:38;16.80;99.90
32097;DHT22;18610;49.916;8.284;2023-05-23T06:36:06;16.80;99.90
32097;DHT22;18610;49.916;8.284;2023-05-23T06:38:34;16.80;99.90
32097;DHT22;18610;49.916;8.284;2023-05-23T06:41:01;16.70;99.90
32097;DHT22;18610;49.916;8.284;2023-05-23T06:43:28;16.80;99.90
32097;DHT22;18610;49.916;8.284;2023-05-23T06:45:55;16.80;99.90
32097;DHT22;18610;49.916;8.284;2023-05-23T06:48:22;16.80;99.90
32097;DHT22;18610;49.916;8.284;2023-05-23T06:50:49;16.80;99.90
32097;DHT22;18610;49.916;8.284;2023-05-23T06:53:16;16.80;99.90
32097;DHT22;18610;49.916;8.284;2023-05-23T06:55:44;16.80;99.90
32097;DHT22;18610;49.916;8.284;2023-05-23T06:58:11;16.70;99.90
32097;DHT22;18610;49.916;8.284;2023-05-23T07:00:39;16.70;99.90
32097;DHT22;18610;49.916;8.284;2023-05-23T07:03:06;16.80;99.90
32097;DHT22;18610;49.916;8.284;2023-05-23T07:05:32;16.70;99.90
32097;DHT22;18610;49.916;8.284;2023-05-23T07:08:01;16.70;99.90
32097;DHT22;18610;49.916;8.284;2023-05-23T07:10:27;16.80;99.90
32097;DHT22;18610;49.916;8.284;2023-05-23T07:12:55;16.80;99.90
32097;DHT22;18610;49.916;8.284;2023-05-23T07:15:22;16.80;99.90
32097;DHT22;18610;49.916;8.284;2023-05-23T07:17:49;16.80;99.90
32097;DHT22;18610;49.916;8.284;2023-05-23T07:20:16;16.80;99.90
32097;DHT22;18610;49.916;8.284;2023-05-23T07:22:43;16.80;99.90
32097;DHT22;18610;49.916;8.284;2023-05-23T07:25:10;16.80;99.90
32097;DHT22;18610;49.916;8.284;2023-05-23T07:27:37;16.90;99.90
32097;DHT22;18610;49.916;8.284;2023-05-23T07:30:06;16.90;99.90
32097;DHT22;18610;49.916;8.284;2023-05-23T07:32:34;16.90;99.90
32097;DHT22;18610;49.916;8.284;2023-05-23T07:35:00;17.00;99.90
32097;DHT22;18610;49.916;8.284;2023-05-23T07:37:27;17.10;99.90
32097;DHT22;18610;49.916;8.284;2023-05-23T07:39:54;17.20;99.90
32097;DHT22;18610;49.916;8.284;2023-05-23T07:42:21;17.30;99.90
32097;DHT22;18610;49.916;8.284;2023-05-23T07:44:47;17.40;99.90
32097;DHT22;18610;49.916;8.284;2023-05-23T07:47:16;17.60;99.90
32097;DHT22;18610;49.916;8.284;2023-05-23T07:49:42;17.60;99.90
32097;DHT22;18610;49.916;8.284;2023-05-23T07:52:09;17.70;99.90
32097;DHT22;18610;49.916;8.284;2023-05-23T07:54:36;17.80;99.90
32097;DHT22;18610;49.916;8.284;2023-05-23T07:57:03;17.90;99.90
32097;DHT22;18610;49.916;8.284;2023-05-23T07:59:31;17.90;99.90
32097;DHT22;18610;49.916;8.284;2023-05-23T08:01:58;18.00;99.90
32097;DHT22;18610;49.916;8.284;2023-05-23T08:04:27;18.00;99.90
32097;DHT22;18610;49.916;8.284;2023-05-23T08:06:54;18.10;99.90
32097;DHT22;18610;49.916;8.284;2023-05-23T08:09:22;18.10;99.90
32097;DHT22;18610;49.916;8.284;2023-05-23T08:11:48;18.10;99.90
32097;DHT22;18610;49.916;8.284;2023-05-23T08:14:15;18.00;99.90
32097;DHT22;18610;49.916;8.284;2023-05-23T08:16:42;18.00;99.90
32097;DHT22;18610;49.916;8.284;2023-05-23T08:19:09;18.00;99.90
32097;DHT22;18610;49.916;8.284;2023-05-23T08:21:37;18.10;99.90
32097;DHT22;18610;49.916;8.284;2023-05-23T08:24:04;18.20;99.90
32097;DHT22;18610;49.916;8.284;2023-05-23T08:26:31;18.30;99.90
32097;DHT22;18610;49.916;8.284;2023-05-23T08:28:59;18.50;99.90
32097;DHT22;18610;49.916;8.284;2023-05-23T08:31:27;18.70;99.90
32097;DHT22;18610;49.916;8.284;2023-05-23T08:33:54;18.80;99.90
32097;DHT22;18610;49.916;8.284;2023-05-23T08:36:21;18.90;99.90
32097;DHT22;18610;49.916;8.284;2023-05-23T08:38:49;19.00;99.90
32097;DHT22;18610;49.916;8.284;2023-05-23T08:41:18;19.10;99.90
32097;DHT22;18610;49.916;8.284;2023-05-23T08:43:46;19.20;99.90
32097;DHT22;18610;49.916;8.284;2023-05-23T08:46:14;19.30;99.90
32097;DHT22;18610;49.916;8.284;2023-05-23T08:48:42;19.30;99.90
32097;DHT22;18610;49.916;8.284;2023-05-23T08:51:09;19.30;99.90
32097;DHT22;18610;49.916;8.284;2023-05-23T08:53:40;19.20;99.90
32097;DHT22;18610;49.916;8.284;2023-05-23T08:56:09;19.10;99.90
32097;DHT22;18610;49.916;8.284;2023-05-23T08:58:36;19.10;99.90
32097;DHT22;18610;49.916;8.284;2023-05-23T09:01:05;19.10;99.90
32097;DHT22;18610;49.916;8.284;2023-05-23T09:03:34;19.00;99.90
32097;DHT22;18610;49.916;8.284;2023-05-23T09:06:02;19.00;99.90
32097;DHT22;18610;49.916;8.284;2023-05-23T09:08:29;18.90;99.90
32097;DHT22;18610;49.916;8.284;2023-05-23T09:10:56;18.90;99.90
32097;DHT22;18610;49.916;8.284;2023-05-23T09:13:24;18.90;99.90
32097;DHT22;18610;49.916;8.284;2023-05-23T09:16:01;19.00;99.90
32097;DHT22;18610;49.916;8.284;2023-05-23T09:18:32;19.10;99.90
32097;DHT22;18610;49.916;8.284;2023-05-23T09:21:00;19.20;99.90
32097;DHT22;18610;49.916;8.284;2023-05-23T09:23:29;19.30;99.90
32097;DHT22;18610;49.916;8.284;2023-05-23T09:25:55;19.30;99.90
32097;DHT22;18610;49.916;8.284;2023-05-23T09:28:24;19.20;99.90
32097;DHT22;18610;49.916;8.284;2023-05-23T09:30:57;19.10;99.90
32097;DHT22;18610;49.916;8.284;2023-05-23T09:33:29;19.10;99.90
32097;DHT22;18610;49.916;8.284;2023-05-23T09:35:58;18.90;99.90
32097;DHT22;18610;49.916;8.284;2023-05-23T09:38:25;18.90;99.90
32097;DHT22;18610;49.916;8.284;2023-05-23T09:40:54;18.90;99.90
32097;DHT22;18610;49.916;8.284;2023-05-23T09:43:23;18.90;99.90
32097;DHT22;18610;49.916;8.284;2023-05-23T09:45:52;18.90;99.90
32097;DHT22;18610;49.916;8.284;2023-05-23T09:48:27;18.90;99.90
32097;DHT22;18610;49.916;8.284;2023-05-23T09:50:54;19.00;99.90
32097;DHT22;18610;49.916;8.284;2023-05-23T09:53:20;19.10;99.90
32097;DHT22;18610;49.916;8.284;2023-05-23T09:55:48;19.30;99.90
32097;DHT22;18610;49.916;8.284;2023-05-23T09:58:18;19.30;99.90
32097;DHT22;18610;49.916;8.284;2023-05-23T10:00:48;19.50;99.90
32097;DHT22;18610;49.916;8.284;2023-05-23T10:03:15;19.70;99.90
32097;DHT22;18610;49.916;8.284;2023-05-23T10:05:45;19.90;99.90
32097;DHT22;18610;49.916;8.284;2023-05-23T10:08:15;20.20;99.90
32097;DHT22;18610;49.916;8.284;2023-05-23T10:11:32;20.30;99.90
32097;DHT22;18610;49.916;8.284;2023-05-23T10:14:12;20.40;99.90
32097;DHT22;18610;49.916;8.284;2023-05-23T10:16:46;20.50;99.90
32097;DHT22;18610;49.916;8.284;2023-05-23T10:19:21;20.70;99.90
32097;DHT22;18610;49.916;8.284;2023-05-23T10:21:50;20.80;99.90
32097;DHT22;18610;49.916;8.284;2023-05-23T10:24:20;21.00;99.90
32097;DHT22;18610;49.916;8.284;2023-05-23T10:26:47;21.10;99.90
32097;DHT22;18610;49.916;8.284;2023-05-23T10:29:14;21.20;99.90
32097;DHT22;18610;49.916;8.284;2023-05-23T10:31:43;21.30;99.90
32097;DHT22;18610;49.916;8.284;2023-05-23T10:34:14;21.40;99.90
32097;DHT22;18610;49.916;8.284;2023-05-23T10:36:53;21.30;99.90
32097;DHT22;18610;49.916;8.284;2023-05-23T10:39:29;21.10;99.90
32097;DHT22;18610;49.916;8.284;2023-05-23T10:42:02;20.80;99.90
32097;DHT22;18610;49.916;8.284;2023-05-23T10:44:31;20.40;99.90
32097;DHT22;18610;49.916;8.284;2023-05-23T10:47:00;20.10;99.90
32097;DHT22;18610;49.916;8.284;2023-05-23T10:49:39;19.90;99.90
32097;DHT22;18610;49.916;8.284;2023-05-23T10:52:06;19.80;99.90
32097;DHT22;18610;49.916;8.284;2023-05-23T10:54:34;19.80;99.90
32097;DHT22;18610;49.916;8.284;2023-05-23T10:57:04;19.80;99.90
32097;DHT22;18610;49.916;8.284;2023-05-23T10:59:32;19.80;99.90
32097;DHT22;18610;49.916;8.284;2023-05-23T11:02:00;19.80;99.90
32097;DHT22;18610;49.916;8.284;2023-05-23T11:04:28;19.80;99.90
32097;DHT22;18610;49.916;8.284;2023-05-23T11:06:56;19.90;99.90
32097;DHT22;18610;49.916;8.284;2023-05-23T11:09:23;19.90;99.90
32097;DHT22;18610;49.916;8.284;2023-05-23T11:11:54;19.90;99.90
32097;DHT22;18610;49.916;8.284;2023-05-23T11:14:31;19.90;99.90
32097;DHT22;18610;49.916;8.284;2023-05-23T11:16:59;19.90;99.90
32097;DHT22;18610;49.916;8.284;2023-05-23T11:19:27;19.90;99.90
32097;DHT22;18610;49.916;8.284;2023-05-23T11:21:57;19.80;99.90
32097;DHT22;18610;49.916;8.284;2023-05-23T11:24:47;19.60;99.90
32097;DHT22;18610;49.916;8.284;2023-05-23T11:27:15;19.50;99.90
32097;DHT22;18610;49.916;8.284;2023-05-23T11:29:54;19.40;99.90
32097;DHT22;18610;49.916;8.284;2023-05-23T11:32:23;19.30;99.90
32097;DHT22;18610;49.916;8.284;2023-05-23T11:34:50;19.40;99.90
32097;DHT22;18610;49.916;8.284;2023-05-23T11:37:17;19.40;99.90
32097;DHT22;18610;49.916;8.284;2023-05-23T11:39:44;19.50;99.90
32097;DHT22;18610;49.916;8.284;2023-05-23T11:42:11;19.60;99.90
32097;DHT22;18610;49.916;8.284;2023-05-23T11:44:38;19.70;99.90
32097;DHT22;18610;49.916;8.284;2023-05-23T11:47:05;20.00;99.90
32097;DHT22;18610;49.916;8.284;2023-05-23T11:49:35;20.30;99.90
32097;DHT22;18610;49.916;8.284;2023-05-23T11:52:04;20.70;99.90
32097;DHT22;18610;49.916;8.284;2023-05-23T11:54:32;20.80;99.90
32097;DHT22;18610;49.916;8.284;2023-05-23T11:56:58;21.00;99.90
32097;DHT22;18610;49.916;8.284;2023-05-23T11:59:25;21.20;99.90
32097;DHT22;18610;49.916;8.284;2023-05-23T12:01:53;21.40;99.90
32097;DHT22;18610;49.916;8.284;2023-05-23T12:04:20;21.60;99.90
32097;DHT22;18610;49.916;8.284;2023-05-23T12:06:49;21.70;99.90
32097;DHT22;18610;49.916;8.284;2023-05-23T12:09:16;21.80;99.90
32097;DHT22;18610;49.916;8.284;2023-05-23T12:11:43;21.80;99.90
32097;DHT22;18610;49.916;8.284;2023-05-23T12:14:14;22.00;99.90
32097;DHT22;18610;49.916;8.284;2023-05-23T12:16:43;22.10;99.90
32097;DHT22;18610;49.916;8.284;2023-05-23T12:19:10;21.90;99.90
32097;DHT22;18610;49.916;8.284;2023-05-23T12:21:44;21.70;99.90
32097;DHT22;18610;49.916;8.284;2023-05-23T12:24:17;21.60;99.90
32097;DHT22;18610;49.916;8.284;2023-05-23T12:26:51;21.50;99.90
32097;DHT22;18610;49.916;8.284;2023-05-23T12:29:19;21.20;99.90
32097;DHT22;18610;49.916;8.284;2023-05-23T12:31:50;21.00;99.90
32097;DHT22;18610;49.916;8.284;2023-05-23T12:34:19;20.80;99.90
32097;DHT22;18610;49.916;8.284;2023-05-23T12:36:46;20.70;99.90
32097;DHT22;18610;49.916;8.284;2023-05-23T12:39:19;20.80;99.90
32097;DHT22;18610;49.916;8.284;2023-05-23T12:41:49;20.80;99.90
32097;DHT22;18610;49.916;8.284;2023-05-23T12:44:16;20.90;99.90
32097;DHT22;18610;49.916;8.284;2023-05-23T12:46:42;21.00;99.90
32097;DHT22;18610;49.916;8.284;2023-05-23T12:49:09;20.90;99.90
32097;DHT22;18610;49.916;8.284;2023-05-23T12:51:36;21.10;99.90
32097;DHT22;18610;49.916;8.284;2023-05-23T12:54:03;21.30;99.90
32097;DHT22;18610;49.916;8.284;2023-05-23T12:56:31;21.70;99.50
32097;DHT22;18610;49.916;8.284;2023-05-23T12:58:58;22.20;98.30
32097;DHT22;18610;49.916;8.284;2023-05-23T13:01:26;22.40;97.70
32097;DHT22;18610;49.916;8.284;2023-05-23T13:03:53;22.70;96.70
32097;DHT22;18610;49.916;8.284;2023-05-23T13:06:20;23.00;96.60
32097;DHT22;18610;49.916;8.284;2023-05-23T13:08:47;23.20;96.70
32097;DHT22;18610;49.916;8.284;2023-05-23T13:11:15;23.30;96.10
32097;DHT22;18610;49.916;8.284;2023-05-23T13:13:43;23.40;95.70
32097;DHT22;18610;49.916;8.284;2023-05-23T13:16:09;23.50;95.60
32097;DHT22;18610;49.916;8.284;2023-05-23T13:18:36;23.70;94.80
32097;DHT22;18610;49.916;8.284;2023-05-23T13:21:03;23.70;94.40
32097;DHT22;18610;49.916;8.284;2023-05-23T13:23:30;23.80;94.00
32097;DHT22;18610;49.916;8.284;2023-05-23T13:25:57;23.90;93.00
32097;DHT22;18610;49.916;8.284;2023-05-23T13:28:24;23.70;92.90
32097;DHT22;18610;49.916;8.284;2023-05-23T13:30:52;23.60;93.70
32097;DHT22;18610;49.916;8.284;2023-05-23T13:33:19;23.70;93.30
32097;DHT22;18610;49.916;8.284;2023-05-23T13:35:47;23.60;92.50
32097;DHT22;18610;49.916;8.284;2023-05-23T13:38:16;23.50;92.80
32097;DHT22;18610;49.916;8.284;2023-05-23T13:40:43;23.40;93.10
32097;DHT22;18610;49.916;8.284;2023-05-23T13:43:10;23.30;92.60
32097;DHT22;18610;49.916;8.284;2023-05-23T13:45:37;23.10;93.20
32097;DHT22;18610;49.916;8.284;2023-05-23T13:48:05;22.90;92.50
32097;DHT22;18610;49.916;8.284;2023-05-23T13:50:32;22.80;94.00
32097;DHT22;18610;49.916;8.284;2023-05-23T13:52:58;22.70;93.10
32097;DHT22;18610;49.916;8.284;2023-05-23T13:55:26;22.50;93.30
32097;DHT22;18610;49.916;8.284;2023-05-23T13:57:52;22.50;94.10
32097;DHT22;18610;49.916;8.284;2023-05-23T14:00:19;22.40;93.30
32097;DHT22;18610;49.916;8.284;2023-05-23T14:02:47;22.40;94.20
32097;DHT22;18610;49.916;8.284;2023-05-23T14:05:15;22.50;93.80
32097;DHT22;18610;49.916;8.284;2023-05-23T14:07:43;22.60;93.40
32097;DHT22;18610;49.916;8.284;2023-05-23T14:10:11;22.60;93.00
32097;DHT22;18610;49.916;8.284;2023-05-23T14:12:38;22.50;92.70
32097;DHT22;18610;49.916;8.284;2023-05-23T14:15:06;22.30;93.70
32097;DHT22;18610;49.916;8.284;2023-05-23T14:17:33;22.20;94.80
32097;DHT22;18610;49.916;8.284;2023-05-23T14:20:01;21.90;95.30
32097;DHT22;18610;49.916;8.284;2023-05-23T14:22:29;21.70;95.10
32097;DHT22;18610;49.916;8.284;2023-05-23T14:24:56;21.60;96.30
32097;DHT22;18610;49.916;8.284;2023-05-23T14:27:23;21.60;96.20
32097;DHT22;18610;49.916;8.284;2023-05-23T14:29:50;21.60;96.40
32097;DHT22;18610;49.916;8.284;2023-05-23T14:32:17;21.70;95.60
32097;DHT22;18610;49.916;8.284;2023-05-23T14:34:44;21.60;95.50
32097;DHT22;18610;49.916;8.284;2023-05-23T14:37:10;21.50;96.40
32097;DHT22;18610;49.916;8.284;2023-05-23T14:39:38;21.50;96.60
32097;DHT22;18610;49.916;8.284;2023-05-23T14:42:05;21.50;96.20
32097;DHT22;18610;49.916;8.284;2023-05-23T14:44:32;21.30;96.40
32097;DHT22;18610;49.916;8.284;2023-05-23T14:46:59;21.20;96.70
32097;DHT22;18610;49.916;8.284;2023-05-23T14:49:25;21.00;97.50
32097;DHT22;18610;49.916;8.284;2023-05-23T14:51:52;20.80;97.30
32097;DHT22;18610;49.916;8.284;2023-05-23T14:54:19;20.60;97.60
32097;DHT22;18610;49.916;8.284;2023-05-23T14:56:47;20.50;97.80
32097;DHT22;18610;49.916;8.284;2023-05-23T14:59:14;20.40;98.10
32097;DHT22;18610;49.916;8.284;2023-05-23T15:01:42;20.40;98.70
32097;DHT22;18610;49.916;8.284;2023-05-23T15:04:08;20.30;97.80
32097;DHT22;18610;49.916;8.284;2023-05-23T15:06:35;20.20;98.00
32097;DHT22;18610;49.916;8.284;2023-05-23T15:09:02;20.10;97.80
32097;DHT22;18610;49.916;8.284;2023-05-23T15:11:29;19.90;98.20
32097;DHT22;18610;49.916;8.284;2023-05-23T15:13:58;19.80;98.30
32097;DHT22;18610;49.916;8.284;2023-05-23T15:16:25;19.80;98.80
32097;DHT22;18610;49.916;8.284;2023-05-23T15:18:56;19.90;98.70
32097;DHT22;18610;49.916;8.284;2023-05-23T15:21:23;19.90;98.30
32097;DHT22;18610;49.916;8.284;2023-05-23T15:23:50;19.80;98.20
32097;DHT22;18610;49.916;8.284;2023-05-23T15:26:17;19.80;98.50
32097;DHT22;18610;49.916;8.284;2023-05-23T15:28:44;19.80;98.50
32097;DHT22;18610;49.916;8.284;2023-05-23T15:31:12;19.80;98.50
32097;DHT22;18610;49.916;8.284;2023-05-23T15:33:39;19.80;97.80
32097;DHT22;18610;49.916;8.284;2023-05-23T15:36:06;19.80;97.70
32097;DHT22;18610;49.916;8.284;2023-05-23T15:38:32;19.90;98.10